Time;durP1;ratioP1;P1;durP2;ratioP2;P2;SDS_P1;SDS_P2;PMS_P1;PMS_P2;Temp;Humidity;BMP_temperature;BMP_pressure;BME280_temperature;BME280_humidity;BME280_pressure;Samples;Min_cycle;Max_cycle;Signal;HPM_P1;HPM_P2
2021/08/09 00:00:09;;;;;;;2.97;2.23;;;17.00;99.90;;;;;;5015248;28;20218;-56
2021/08/09 00:02:35;;;;;;;3.93;2.43;;;17.00;99.90;;;;;;5015011;28;20289;-56
2021/08/09 00:05:00;;;;;;;4.40;2.07;;;17.00;99.90;;;;;;5014978;28;20491;-54
2021/08/09 00:07:26;;;;;;;2.40;2.10;;;16.90;99.90;;;;;;5015532;28;20639;-57
2021/08/09 00:09:53;;;;;;;2.07;1.87;;;16.90;99.90;;;;;;5014693;28;20199;-58
2021/08/09 00:12:19;;;;;;;2.80;1.50;;;16.90;99.90;;;;;;5015237;28;20245;-57
2021/08/09 00:14:45;;;;;;;3.60;1.60;;;16.90;99.90;;;;;;5015204;28;20823;-57
2021/08/09 00:17:11;;;;;;;6.20;2.03;;;17.00;99.90;;;;;;5014845;28;20407;-57
2021/08/09 00:19:37;;;;;;;2.20;1.87;;;17.00;99.90;;;;;;5014973;28;20230;-57
2021/08/09 00:22:03;;;;;;;3.87;2.13;;;17.10;99.90;;;;;;5015226;28;20171;-54
2021/08/09 00:24:28;;;;;;;2.10;1.90;;;17.10;99.90;;;;;;5015179;28;20817;-55
2021/08/09 00:26:55;;;;;;;2.53;1.70;;;17.00;99.90;;;;;;5017259;28;20179;-56
2021/08/09 00:29:20;;;;;;;3.60;2.00;;;17.10;99.90;;;;;;5014611;28;20190;-56
2021/08/09 00:31:46;;;;;;;2.93;1.90;;;17.00;99.90;;;;;;5014673;28;20398;-55
2021/08/09 00:34:11;;;;;;;3.17;2.10;;;16.90;99.90;;;;;;5014665;28;20592;-54
2021/08/09 00:36:37;;;;;;;2.20;1.67;;;16.90;99.90;;;;;;5014799;28;20164;-57
2021/08/09 00:39:03;;;;;;;1.97;1.50;;;17.00;99.90;;;;;;5014465;28;20191;-57
2021/08/09 00:41:28;;;;;;;6.53;1.90;;;17.00;99.90;;;;;;5014373;28;20171;-57
2021/08/09 00:43:54;;;;;;;1.90;1.70;;;17.00;99.90;;;;;;5014168;28;20663;-57
2021/08/09 00:46:19;;;;;;;2.33;1.80;;;16.90;99.90;;;;;;5014551;28;20179;-57
2021/08/09 00:48:45;;;;;;;2.80;1.77;;;16.80;99.90;;;;;;5014083;28;20183;-57
2021/08/09 00:51:11;;;;;;;2.70;1.83;;;16.70;99.90;;;;;;5014330;28;20165;-57
2021/08/09 00:53:38;;;;;;;2.40;2.03;;;16.70;99.90;;;;;;5014204;28;20206;-57
2021/08/09 00:56:04;;;;;;;2.67;1.53;;;16.70;99.90;;;;;;5014452;28;20182;-57
2021/08/09 00:58:30;;;;;;;2.47;1.70;;;16.70;99.90;;;;;;5014367;28;20775;-57
2021/08/09 01:00:55;;;;;;;3.77;2.03;;;16.80;99.90;;;;;;5014045;28;20429;-56
2021/08/09 01:03:21;;;;;;;2.90;1.93;;;16.80;99.90;;;;;;5013260;28;20454;-56
2021/08/09 01:05:49;;;;;;;2.10;1.90;;;16.80;99.90;;;;;;5013810;28;20253;-57
2021/08/09 01:08:44;;;;;;;2.20;1.60;;;16.90;99.90;;;;;;5013746;28;20175;-57
2021/08/09 01:11:23;;;;;;;6.27;1.90;;;17.00;99.90;;;;;;4999086;28;20992;-57
2021/08/09 01:14:05;;;;;;;3.33;1.80;;;17.00;99.90;;;;;;5016895;28;20408;-56
2021/08/09 01:16:35;;;;;;;2.30;1.63;;;16.90;99.90;;;;;;5015239;28;20471;-61
2021/08/09 01:19:07;;;;;;;2.60;1.87;;;16.80;99.90;;;;;;5013870;28;20441;-56
2021/08/09 01:21:34;;;;;;;3.10;1.83;;;16.80;99.90;;;;;;5017639;28;20450;-55
2021/08/09 01:24:06;;;;;;;4.07;2.00;;;16.80;99.90;;;;;;5017939;28;20458;-56
2021/08/09 01:26:51;;;;;;;2.00;1.80;;;16.70;99.90;;;;;;5014328;28;20879;-56
2021/08/09 01:29:25;;;;;;;2.37;1.90;;;16.60;99.90;;;;;;5012427;28;20463;-57
2021/08/09 01:31:52;;;;;;;2.73;1.60;;;16.50;99.90;;;;;;5014024;28;20398;-56
2021/08/09 01:34:20;;;;;;;2.13;1.93;;;16.40;99.90;;;;;;5013411;28;20425;-57
2021/08/09 01:36:50;;;;;;;4.93;2.37;;;16.40;99.90;;;;;;5013845;28;20489;-56
2021/08/09 01:39:16;;;;;;;2.60;1.97;;;16.30;99.90;;;;;;5013621;28;20432;-56
2021/08/09 01:41:43;;;;;;;3.50;2.43;;;16.30;99.90;;;;;;5012792;28;20788;-55
2021/08/09 01:44:09;;;;;;;2.50;1.70;;;16.30;99.90;;;;;;5013426;28;20503;-56
2021/08/09 01:46:37;;;;;;;2.53;1.87;;;16.30;99.90;;;;;;5013813;28;20414;-56
2021/08/09 01:49:05;;;;;;;3.63;1.60;;;16.20;99.90;;;;;;5013065;28;20520;-56
2021/08/09 01:51:32;;;;;;;6.10;2.13;;;16.30;99.90;;;;;;5013602;28;20421;-56
2021/08/09 01:53:59;;;;;;;3.70;1.80;;;16.30;99.90;;;;;;5013549;28;20414;-57
2021/08/09 01:56:25;;;;;;;2.77;2.10;;;16.20;99.90;;;;;;5017012;28;20497;-56
2021/08/09 01:58:51;;;;;;;2.70;2.07;;;16.10;99.90;;;;;;5017317;28;20475;-57
2021/08/09 02:01:18;;;;;;;2.40;1.93;;;16.10;99.90;;;;;;5017524;28;20880;-57
2021/08/09 02:03:44;;;;;;;1.93;1.50;;;16.10;99.90;;;;;;5017064;28;20539;-57
2021/08/09 02:06:10;;;;;;;2.90;1.80;;;16.00;99.90;;;;;;5017765;28;20562;-57
2021/08/09 02:08:36;;;;;;;1.90;1.60;;;15.90;99.90;;;;;;5017392;28;20739;-57
2021/08/09 02:11:18;;;;;;;2.73;2.00;;;15.90;99.90;;;;;;5017306;28;20403;-57
2021/08/09 02:13:53;;;;;;;2.33;2.03;;;15.80;99.90;;;;;;5017563;28;20502;-57
2021/08/09 02:16:35;;;;;;;3.57;2.00;;;15.90;99.90;;;;;;5017107;28;20932;-57
2021/08/09 02:19:16;;;;;;;3.27;2.03;;;15.80;99.90;;;;;;5016845;28;20430;-57
2021/08/09 02:21:45;;;;;;;2.50;2.00;;;15.70;99.90;;;;;;5017065;28;20395;-57
2021/08/09 02:24:18;;;;;;;3.67;1.60;;;15.80;99.90;;;;;;5016922;28;20462;-57
2021/08/09 02:26:58;;;;;;;4.03;2.07;;;15.90;99.90;;;;;;5019506;28;20883;-56
2021/08/09 02:29:29;;;;;;;2.30;2.10;;;15.80;99.90;;;;;;5016947;28;20834;-56
2021/08/09 02:31:56;;;;;;;4.50;2.20;;;15.80;99.90;;;;;;5017183;28;20388;-57
2021/08/09 02:34:24;;;;;;;4.13;2.17;;;15.80;99.90;;;;;;5016813;28;20407;-57
2021/08/09 02:36:50;;;;;;;2.80;2.17;;;15.70;99.90;;;;;;5016972;28;20745;-57
2021/08/09 02:39:17;;;;;;;2.90;1.70;;;15.80;99.90;;;;;;5016489;28;20414;-57
2021/08/09 02:41:43;;;;;;;2.60;1.63;;;15.90;99.90;;;;;;5016680;28;20435;-56
2021/08/09 02:44:10;;;;;;;2.07;1.87;;;15.80;99.90;;;;;;5016844;28;20463;-57
2021/08/09 02:46:40;;;;;;;1.73;1.63;;;15.80;99.90;;;;;;5016661;28;20406;-57
2021/08/09 02:49:07;;;;;;;5.43;1.97;;;15.70;99.90;;;;;;5016453;28;20517;-57
2021/08/09 02:51:34;;;;;;;3.80;1.70;;;15.70;99.90;;;;;;5016537;28;20408;-57
2021/08/09 02:54:02;;;;;;;4.70;2.03;;;15.70;99.90;;;;;;5016466;28;20404;-57
2021/08/09 02:56:29;;;;;;;2.70;2.10;;;15.80;99.90;;;;;;5016705;28;20418;-57
2021/08/09 02:58:55;;;;;;;2.13;1.73;;;15.70;99.90;;;;;;5016087;28;20501;-57
2021/08/09 03:01:23;;;;;;;2.47;2.00;;;15.70;99.90;;;;;;5016912;28;20490;-57
2021/08/09 03:03:53;;;;;;;3.00;2.13;;;15.70;99.90;;;;;;5016289;28;20355;-52
2021/08/09 03:06:19;;;;;;;6.40;2.00;;;15.60;99.90;;;;;;5016373;28;20389;-57
2021/08/09 03:08:45;;;;;;;2.80;1.70;;;15.50;99.90;;;;;;5015966;28;20938;-56
2021/08/09 03:11:13;;;;;;;1.83;1.57;;;15.50;99.90;;;;;;5016158;28;20971;-56
2021/08/09 03:13:48;;;;;;;2.20;1.97;;;15.40;99.90;;;;;;5016213;28;20467;-56
2021/08/09 03:16:14;;;;;;;3.73;2.30;;;15.50;99.90;;;;;;5016383;28;20802;-55
2021/08/09 03:18:40;;;;;;;3.07;2.00;;;15.50;99.90;;;;;;5015986;28;20430;-57
2021/08/09 03:21:06;;;;;;;2.47;2.07;;;15.50;99.90;;;;;;5016001;28;20418;-56
2021/08/09 03:23:32;;;;;;;5.17;2.50;;;15.50;99.90;;;;;;5015899;28;20293;-56
2021/08/09 03:25:58;;;;;;;2.70;1.70;;;15.50;99.90;;;;;;5015687;28;20442;-55
2021/08/09 03:28:23;;;;;;;4.60;1.90;;;15.50;99.90;;;;;;5015813;28;20424;-56
2021/08/09 03:30:49;;;;;;;3.50;2.00;;;15.50;99.90;;;;;;5016087;28;20178;-56
2021/08/09 03:33:15;;;;;;;2.17;1.90;;;15.50;99.90;;;;;;5015969;28;20175;-56
2021/08/09 03:35:40;;;;;;;2.60;1.60;;;15.50;99.90;;;;;;5014226;28;20207;-57
2021/08/09 03:38:06;;;;;;;2.73;1.90;;;15.50;99.90;;;;;;5014365;28;20642;-56
2021/08/09 03:40:31;;;;;;;2.47;1.90;;;15.50;99.90;;;;;;5015583;28;20250;-55
2021/08/09 03:42:57;;;;;;;3.20;1.93;;;15.50;99.90;;;;;;5016003;28;20322;-55
2021/08/09 03:45:23;;;;;;;4.77;2.10;;;15.60;99.90;;;;;;5016052;28;20163;-55
2021/08/09 03:47:48;;;;;;;2.67;1.80;;;15.60;99.90;;;;;;5015725;28;20178;-56
2021/08/09 03:50:14;;;;;;;6.50;2.50;;;15.60;99.90;;;;;;5015088;28;20537;-56
2021/08/09 03:52:50;;;;;;;2.67;2.10;;;15.70;99.90;;;;;;5015715;28;20187;-56
2021/08/09 03:55:16;;;;;;;1.90;1.73;;;15.70;99.90;;;;;;5014576;28;20203;-56
2021/08/09 03:57:42;;;;;;;3.63;2.07;;;15.70;99.90;;;;;;5015129;28;21005;-57
2021/08/09 04:00:09;;;;;;;4.33;2.60;;;15.50;99.90;;;;;;5015127;28;20541;-57
2021/08/09 04:02:35;;;;;;;2.40;1.73;;;15.50;99.90;;;;;;5015083;28;20487;-57
2021/08/09 04:05:00;;;;;;;3.73;2.00;;;15.40;99.90;;;;;;5015044;28;20437;-56
2021/08/09 04:07:29;;;;;;;2.60;2.07;;;15.30;99.90;;;;;;5015419;28;20434;-57
2021/08/09 04:09:54;;;;;;;2.80;2.40;;;15.20;99.90;;;;;;5014875;28;20196;-57
2021/08/09 04:12:21;;;;;;;2.47;2.10;;;15.30;99.90;;;;;;5014924;28;20454;-56
2021/08/09 04:14:47;;;;;;;2.63;2.10;;;15.40;99.90;;;;;;5015225;28;20821;-56
2021/08/09 04:17:12;;;;;;;8.30;2.37;;;15.50;99.90;;;;;;5015139;28;20499;-56
2021/08/09 04:19:38;;;;;;;3.90;2.70;;;15.50;99.90;;;;;;5013939;28;20588;-56
2021/08/09 04:22:04;;;;;;;2.90;2.60;;;15.50;99.90;;;;;;5015053;28;20304;-57
2021/08/09 04:24:30;;;;;;;2.30;2.03;;;15.50;99.90;;;;;;5014128;28;20177;-56
2021/08/09 04:26:55;;;;;;;2.50;1.93;;;15.40;99.90;;;;;;5014915;28;20632;-55
2021/08/09 04:29:21;;;;;;;3.77;2.20;;;15.30;99.90;;;;;;5014505;28;20192;-54
2021/08/09 04:31:46;;;;;;;2.80;2.07;;;15.40;99.90;;;;;;5027237;28;20169;-57
2021/08/09 04:34:12;;;;;;;3.20;2.27;;;15.50;99.90;;;;;;5034623;28;20178;-53
2021/08/09 04:36:37;;;;;;;3.83;2.20;;;15.50;99.90;;;;;;5034541;28;20172;-57
2021/08/09 04:39:03;;;;;;;3.50;2.10;;;15.60;99.90;;;;;;5034369;28;20243;-52
2021/08/09 04:41:29;;;;;;;2.67;2.10;;;15.60;99.90;;;;;;5034149;28;20176;-53
2021/08/09 04:43:54;;;;;;;4.20;1.73;;;15.70;99.90;;;;;;5033803;28;20208;-55
2021/08/09 04:46:20;;;;;;;2.30;2.00;;;15.70;99.90;;;;;;5034142;28;20167;-54
2021/08/09 04:48:45;;;;;;;2.43;2.23;;;15.70;99.90;;;;;;5034697;28;20601;-51
2021/08/09 04:51:12;;;;;;;4.63;1.83;;;15.80;99.90;;;;;;5035514;28;20566;-53
2021/08/09 04:53:38;;;;;;;4.30;2.30;;;15.80;99.90;;;;;;5034529;28;20166;-56
2021/08/09 04:56:04;;;;;;;3.60;1.90;;;15.90;99.90;;;;;;5033896;28;20403;-57
2021/08/09 04:58:29;;;;;;;1.70;1.60;;;16.00;99.90;;;;;;5033547;28;20181;-57
2021/08/09 05:00:55;;;;;;;2.50;2.30;;;16.00;99.90;;;;;;5041993;23;20717;-55
2021/08/09 05:03:21;;;;;;;2.47;2.07;;;16.10;99.90;;;;;;5014171;28;20290;-54
2021/08/09 05:05:47;;;;;;;2.90;2.13;;;16.10;99.90;;;;;;5014188;28;20621;-53
2021/08/09 05:08:13;;;;;;;2.87;2.10;;;16.10;99.90;;;;;;5013924;28;20624;-54
2021/08/09 05:10:39;;;;;;;3.40;1.97;;;16.00;99.90;;;;;;5014374;28;20471;-53
2021/08/09 05:13:05;;;;;;;4.37;1.80;;;16.10;99.90;;;;;;5013788;28;20404;-56
2021/08/09 05:15:32;;;;;;;1.77;1.53;;;16.10;99.90;;;;;;5014184;28;20497;-55
2021/08/09 05:17:58;;;;;;;2.30;1.93;;;16.00;99.90;;;;;;5013708;28;20183;-53
2021/08/09 05:20:24;;;;;;;2.83;2.40;;;15.90;99.90;;;;;;5013843;28;20431;-56
2021/08/09 05:22:49;;;;;;;2.43;2.23;;;15.90;99.90;;;;;;5014216;28;20193;-55
2021/08/09 05:25:15;;;;;;;3.23;2.10;;;15.90;99.90;;;;;;5013940;28;20182;-52
2021/08/09 05:27:42;;;;;;;2.97;1.80;;;15.90;99.90;;;;;;5013659;28;20169;-53
2021/08/09 05:30:09;;;;;;;3.07;2.20;;;15.90;99.90;;;;;;5012969;28;20431;-53
2021/08/09 05:32:37;;;;;;;3.57;1.97;;;15.90;99.90;;;;;;5013882;28;20931;-54
2021/08/09 05:35:04;;;;;;;2.33;2.13;;;15.90;99.90;;;;;;5013537;28;20415;-53
2021/08/09 05:37:31;;;;;;;2.33;1.73;;;15.90;99.90;;;;;;5013499;28;20505;-55
2021/08/09 05:39:58;;;;;;;2.63;1.97;;;16.00;99.90;;;;;;5013383;28;20513;-53
2021/08/09 05:42:24;;;;;;;2.60;2.40;;;16.10;99.90;;;;;;5013240;28;20443;-56
2021/08/09 05:44:50;;;;;;;2.57;2.20;;;16.10;99.90;;;;;;5013340;28;20422;-52
2021/08/09 05:47:15;;;;;;;3.07;2.77;;;16.10;99.90;;;;;;5013130;28;20571;-52
2021/08/09 05:49:41;;;;;;;3.40;2.63;;;16.10;99.90;;;;;;5013510;28;20472;-56
2021/08/09 05:52:06;;;;;;;4.27;2.83;;;16.20;99.90;;;;;;5013760;28;20266;-53
2021/08/09 05:54:32;;;;;;;2.30;2.10;;;16.20;99.90;;;;;;5013514;28;20556;-53
2021/08/09 05:56:58;;;;;;;3.00;2.33;;;16.30;99.90;;;;;;5013295;28;20640;-53
2021/08/09 05:59:24;;;;;;;2.40;1.90;;;16.50;99.90;;;;;;5011710;28;20259;-53
2021/08/09 06:01:49;;;;;;;2.90;2.60;;;16.60;99.90;;;;;;5013000;28;20398;-54
2021/08/09 06:04:15;;;;;;;2.70;2.40;;;16.70;99.90;;;;;;5013007;28;20541;-54
2021/08/09 06:06:42;;;;;;;3.70;2.50;;;16.80;99.90;;;;;;5013495;28;20255;-56
2021/08/09 06:09:07;;;;;;;2.37;2.17;;;17.00;99.90;;;;;;5013304;28;20183;-55
2021/08/09 06:11:33;;;;;;;3.67;2.00;;;17.00;99.90;;;;;;5013298;28;20405;-55
2021/08/09 06:13:59;;;;;;;2.80;2.10;;;17.00;99.90;;;;;;5011585;28;20559;-56
2021/08/09 06:16:25;;;;;;;1.87;1.77;;;17.20;99.90;;;;;;5011839;28;20262;-55
2021/08/09 06:18:54;;;;;;;3.23;1.93;;;17.30;99.90;;;;;;5013129;28;20596;-56
2021/08/09 06:21:19;;;;;;;2.80;1.93;;;17.40;99.90;;;;;;5013181;28;20423;-52
2021/08/09 06:23:45;;;;;;;1.87;1.70;;;17.50;99.90;;;;;;5015484;28;20473;-56
2021/08/09 06:26:10;;;;;;;2.30;2.10;;;17.70;99.90;;;;;;5012959;28;20190;-54
2021/08/09 06:28:36;;;;;;;3.13;2.00;;;17.80;99.90;;;;;;5013050;28;20172;-53
2021/08/09 06:31:02;;;;;;;3.10;2.33;;;17.80;99.90;;;;;;5012851;28;20192;-56
2021/08/09 06:33:27;;;;;;;2.20;1.70;;;17.80;99.90;;;;;;5013308;28;20263;-56
2021/08/09 06:35:53;;;;;;;5.13;2.33;;;17.90;99.90;;;;;;5011845;28;20164;-51
2021/08/09 06:38:18;;;;;;;2.80;1.83;;;18.00;99.90;;;;;;5013417;28;20617;-55
2021/08/09 06:40:45;;;;;;;2.63;2.03;;;18.10;99.90;;;;;;5012892;28;20184;-51
2021/08/09 06:43:11;;;;;;;2.80;1.77;;;18.20;99.90;;;;;;5015762;28;20203;-51
2021/08/09 06:45:41;;;;;;;3.20;2.17;;;18.30;99.90;;;;;;5016450;28;20395;-54
2021/08/09 06:48:07;;;;;;;3.60;1.90;;;18.30;99.90;;;;;;5016834;28;20403;-51
2021/08/09 06:50:33;;;;;;;1.90;1.40;;;18.60;99.90;;;;;;5016333;28;20427;-54
2021/08/09 06:52:58;;;;;;;2.30;1.47;;;18.60;99.90;;;;;;5016550;28;20414;-51
2021/08/09 06:55:24;;;;;;;2.93;2.07;;;18.50;99.90;;;;;;5016850;28;20528;-54
2021/08/09 06:57:50;;;;;;;2.67;1.60;;;18.50;99.90;;;;;;5016291;28;20250;-54
2021/08/09 07:00:15;;;;;;;4.70;2.00;;;18.50;99.90;;;;;;5016037;28;20231;-55
2021/08/09 07:02:41;;;;;;;3.13;1.87;;;18.50;99.90;;;;;;5016107;28;20192;-54
2021/08/09 07:05:07;;;;;;;6.23;1.80;;;18.60;99.90;;;;;;5016243;28;20164;-55
2021/08/09 07:07:33;;;;;;;3.20;1.83;;;18.60;99.90;;;;;;5016236;28;20569;-55
2021/08/09 07:09:59;;;;;;;3.33;1.87;;;18.70;99.90;;;;;;5016249;28;20419;-55
2021/08/09 07:12:24;;;;;;;3.47;1.50;;;18.80;99.90;;;;;;5016102;28;20228;-53
2021/08/09 07:14:50;;;;;;;5.83;1.70;;;18.80;99.90;;;;;;5015998;28;20942;-51
2021/08/09 07:17:16;;;;;;;2.70;1.53;;;18.80;99.90;;;;;;5014937;28;20172;-55
2021/08/09 07:19:41;;;;;;;3.53;1.70;;;18.90;99.90;;;;;;5015934;28;20206;-53
2021/08/09 07:22:07;;;;;;;3.17;1.73;;;18.80;99.90;;;;;;5015235;28;20250;-54
2021/08/09 07:24:34;;;;;;;2.90;1.90;;;18.90;99.90;;;;;;5016049;28;20565;-54
2021/08/09 07:27:00;;;;;;;2.07;1.73;;;18.90;99.90;;;;;;5016154;28;20164;-52
2021/08/09 07:29:27;;;;;;;3.73;2.00;;;19.10;99.90;;;;;;5015487;28;20954;-53
2021/08/09 07:31:53;;;;;;;2.00;1.67;;;19.00;99.90;;;;;;5015782;28;20581;-54
2021/08/09 07:34:19;;;;;;;2.00;1.50;;;19.00;99.90;;;;;;5016048;28;20494;-54
2021/08/09 07:36:44;;;;;;;5.00;1.63;;;19.30;99.90;;;;;;5016066;28;20247;-55
2021/08/09 07:39:10;;;;;;;2.27;1.40;;;19.50;99.90;;;;;;5016137;28;20164;-54
2021/08/09 07:41:35;;;;;;;2.17;1.50;;;19.80;99.90;;;;;;5015577;28;20168;-52
2021/08/09 07:44:01;;;;;;;2.73;1.50;;;20.00;99.90;;;;;;5015593;28;20254;-52
2021/08/09 07:46:29;;;;;;;3.37;1.70;;;20.20;99.90;;;;;;5013008;28;20266;-56
2021/08/09 07:48:55;;;;;;;2.97;2.20;;;20.50;99.90;;;;;;5015737;28;20781;-54
2021/08/09 07:51:20;;;;;;;2.23;1.20;;;20.50;99.90;;;;;;5015004;28;20653;-52
2021/08/09 07:53:46;;;;;;;2.03;1.20;;;20.30;99.90;;;;;;5014062;28;20234;-53
2021/08/09 07:56:12;;;;;;;1.93;1.40;;;20.20;99.90;;;;;;5012483;28;20180;-51
2021/08/09 07:58:38;;;;;;;3.90;1.67;;;20.20;99.90;;;;;;5014695;28;20691;-54
2021/08/09 08:01:03;;;;;;;2.80;1.37;;;20.10;99.90;;;;;;5014428;28;20289;-56
2021/08/09 08:03:29;;;;;;;4.27;1.73;;;20.30;99.90;;;;;;5014874;28;20246;-54
2021/08/09 08:05:54;;;;;;;1.40;1.30;;;20.50;99.90;;;;;;5015397;28;20197;-55
2021/08/09 08:08:21;;;;;;;1.73;1.43;;;20.40;99.90;;;;;;5015348;28;20168;-55
2021/08/09 08:10:47;;;;;;;3.17;1.67;;;20.70;99.90;;;;;;5015192;28;20280;-53
2021/08/09 08:13:12;;;;;;;3.00;1.50;;;21.00;99.90;;;;;;5014654;28;20843;-56
2021/08/09 08:15:38;;;;;;;2.00;1.57;;;21.10;99.90;;;;;;5014715;28;20544;-55
2021/08/09 08:18:04;;;;;;;3.17;1.73;;;21.20;99.90;;;;;;5014595;28;20233;-55
2021/08/09 08:20:29;;;;;;;3.30;1.27;;;21.00;99.90;;;;;;5014687;28;20203;-53
2021/08/09 08:22:57;;;;;;;2.70;1.70;;;20.80;99.90;;;;;;5014686;28;20203;-51
2021/08/09 08:25:23;;;;;;;2.40;1.37;;;20.90;99.90;;;;;;5014868;28;20250;-54
2021/08/09 08:27:48;;;;;;;2.20;1.30;;;20.90;99.90;;;;;;5014963;28;20772;-54
2021/08/09 08:30:15;;;;;;;1.37;1.27;;;21.00;99.90;;;;;;5013971;28;20718;-55
2021/08/09 08:32:42;;;;;;;2.53;1.50;;;21.20;99.90;;;;;;5014487;28;20628;-56
2021/08/09 08:35:08;;;;;;;3.90;1.53;;;21.20;99.90;;;;;;5014472;28;20411;-53
2021/08/09 08:37:34;;;;;;;2.37;1.30;;;21.30;99.90;;;;;;5014147;28;20450;-50
2021/08/09 08:40:00;;;;;;;2.60;1.40;;;21.30;99.90;;;;;;5015119;28;20427;-55
2021/08/09 08:42:25;;;;;;;1.30;1.20;;;21.30;99.90;;;;;;5014045;28;20200;-51
2021/08/09 08:44:51;;;;;;;2.50;1.60;;;21.50;99.90;;;;;;5014355;28;20208;-50
2021/08/09 08:47:19;;;;;;;3.00;1.60;;;21.70;99.90;;;;;;5014818;28;20300;-52
2021/08/09 08:49:46;;;;;;;3.07;1.30;;;21.60;99.90;;;;;;5014676;28;20190;-51
2021/08/09 08:52:12;;;;;;;3.63;1.60;;;21.40;99.90;;;;;;5014199;28;20417;-50
2021/08/09 08:54:41;;;;;;;2.10;1.90;;;21.60;99.90;;;;;;5014538;28;20771;-54
2021/08/09 08:57:20;;;;;;;1.73;1.13;;;21.80;99.90;;;;;;5014410;28;20887;-52
2021/08/09 08:59:47;;;;;;;3.17;1.70;;;22.10;99.90;;;;;;5013759;28;20934;-55
2021/08/09 09:02:35;;;;;;;1.47;1.07;;;22.00;99.90;;;;;;5014333;28;20418;-51
2021/08/09 09:05:15;;;;;;;2.00;1.60;;;21.90;99.90;;;;;;5013890;28;20414;-55
2021/08/09 09:07:46;;;;;;;1.77;1.20;;;21.90;99.60;;;;;;5014203;28;20435;-56
2021/08/09 09:10:27;;;;;;;1.97;0.93;;;21.90;99.60;;;;;;5013990;28;20442;-53
2021/08/09 09:13:11;;;;;;;2.47;1.40;;;22.10;99.30;;;;;;5014075;28;20449;-54
2021/08/09 09:15:58;;;;;;;1.27;1.10;;;22.40;99.90;;;;;;5013822;28;20415;-56
2021/08/09 09:18:28;;;;;;;1.63;0.93;;;22.60;99.60;;;;;;5014231;28;20403;-54
2021/08/09 09:20:54;;;;;;;1.60;1.13;;;22.80;98.40;;;;;;5013956;28;20518;-53
2021/08/09 09:23:22;;;;;;;1.47;1.10;;;23.00;98.00;;;;;;5013766;28;20550;-55
2021/08/09 09:25:49;;;;;;;2.30;1.00;;;23.10;98.90;;;;;;5013909;28;20489;-56
2021/08/09 09:28:34;;;;;;;2.40;1.17;;;23.30;97.00;;;;;;5013354;28;20414;-55
2021/08/09 09:31:02;;;;;;;2.37;1.20;;;23.50;97.40;;;;;;5013378;28;20427;-52
2021/08/09 09:33:30;;;;;;;1.93;1.00;;;23.40;96.70;;;;;;5014720;28;20504;-56
2021/08/09 09:35:56;;;;;;;1.03;0.93;;;23.40;96.60;;;;;;5013854;28;20415;-51
2021/08/09 09:38:26;;;;;;;2.33;1.00;;;23.80;96.40;;;;;;5013413;28;20474;-52
2021/08/09 09:41:02;;;;;;;1.33;0.87;;;23.80;95.40;;;;;;5013710;28;20437;-55
2021/08/09 09:43:37;;;;;;;3.07;1.30;;;23.70;94.60;;;;;;5013369;28;20490;-52
2021/08/09 09:46:03;;;;;;;1.67;1.00;;;23.50;94.90;;;;;;5013405;28;20836;-55
2021/08/09 09:48:33;;;;;;;3.40;2.50;;;23.60;95.20;;;;;;5013758;28;20442;-58
2021/08/09 09:51:14;;;;;;;1.60;1.20;;;23.50;95.60;;;;;;5013776;28;20431;-57
2021/08/09 09:53:42;;;;;;;2.57;1.23;;;23.50;94.90;;;;;;5013683;28;20456;-58
2021/08/09 09:56:08;;;;;;;2.13;1.17;;;23.40;95.50;;;;;;5013289;28;20411;-55
2021/08/09 09:58:38;;;;;;;1.30;1.20;;;23.60;95.80;;;;;;5013487;28;20407;-58
2021/08/09 10:01:05;;;;;;;3.07;0.90;;;23.80;95.90;;;;;;5013020;28;20457;-58
2021/08/09 10:03:32;;;;;;;1.20;1.00;;;23.70;94.30;;;;;;5013541;28;20454;-58
2021/08/09 10:05:59;;;;;;;3.03;1.00;;;23.60;95.30;;;;;;5013468;28;20486;-55
2021/08/09 10:08:25;;;;;;;1.60;1.20;;;23.70;94.80;;;;;;5013279;28;20903;-58
2021/08/09 10:10:52;;;;;;;1.77;1.00;;;23.80;95.00;;;;;;5013451;28;20419;-56
2021/08/09 10:13:23;;;;;;;2.40;1.53;;;23.80;95.20;;;;;;5013417;28;20541;-57
2021/08/09 10:15:51;;;;;;;2.50;1.30;;;24.00;96.30;;;;;;5013466;28;20442;-58
2021/08/09 10:18:27;;;;;;;2.07;1.30;;;24.20;94.90;;;;;;5016930;28;20465;-56
2021/08/09 10:20:57;;;;;;;3.30;1.53;;;24.50;95.20;;;;;;5017101;28;20433;-55
2021/08/09 10:23:43;;;;;;;1.20;1.10;;;24.50;93.50;;;;;;5019597;28;20500;-58
2021/08/09 10:26:32;;;;;;;3.17;1.17;;;24.80;95.40;;;;;;5017131;28;20489;-56
2021/08/09 10:29:11;;;;;;;1.83;1.20;;;24.60;93.70;;;;;;5007412;28;20975;-58
2021/08/09 10:31:42;;;;;;;2.10;1.00;;;24.60;95.50;;;;;;5016820;28;20748;-56
2021/08/09 10:34:31;;;;;;;2.27;1.30;;;24.80;94.20;;;;;;5016795;28;20895;-58
2021/08/09 10:37:16;;;;;;;2.93;1.13;;;24.80;94.00;;;;;;5016809;28;20461;-56
2021/08/09 10:39:55;;;;;;;2.57;1.80;;;24.90;93.60;;;;;;5016916;28;20430;-56
2021/08/09 10:42:44;;;;;;;3.17;1.57;;;25.30;93.50;;;;;;5016624;28;20407;-57
2021/08/09 10:45:11;;;;;;;3.63;1.67;;;25.50;93.70;;;;;;5016458;28;20395;-57
2021/08/09 10:47:48;;;;;;;3.20;1.20;;;25.60;94.90;;;;;;5016561;28;20441;-56
2021/08/09 10:50:25;;;;;;;3.70;1.60;;;25.50;93.00;;;;;;5016367;28;20480;-57
2021/08/09 10:52:52;;;;;;;2.30;1.30;;;26.00;94.60;;;;;;5016536;28;20450;-58
2021/08/09 10:55:30;;;;;;;2.30;1.50;;;26.30;92.60;;;;;;5016434;28;20498;-58
2021/08/09 10:57:56;;;;;;;2.90;1.30;;;26.30;91.70;;;;;;5016607;28;20501;-56
2021/08/09 11:00:40;;;;;;;1.23;1.00;;;26.70;91.40;;;;;;5043501;23;20577;-54
2021/08/09 11:03:11;;;;;;;1.97;1.30;;;27.30;89.30;;;;;;5015055;28;20451;-54
2021/08/09 11:05:37;;;;;;;2.83;1.80;;;28.00;91.50;;;;;;5016316;28;20395;-54
2021/08/09 11:08:18;;;;;;;1.30;1.07;;;29.70;83.00;;;;;;5016185;28;20415;-52
2021/08/09 11:10:56;;;;;;;1.80;1.40;;;29.40;80.90;;;;;;5016304;28;20191;-51
2021/08/09 11:13:23;;;;;;;6.53;1.97;;;29.80;79.90;;;;;;5016003;28;20927;-55
2021/08/09 11:15:59;;;;;;;1.87;1.30;;;30.20;79.90;;;;;;5016416;28;20411;-55
2021/08/09 11:18:27;;;;;;;2.50;1.30;;;30.10;75.70;;;;;;5015907;28;20514;-52
2021/08/09 11:21:07;;;;;;;3.70;1.30;;;30.40;77.30;;;;;;5016473;28;20427;-53
2021/08/09 11:23:42;;;;;;;2.30;1.43;;;31.70;74.40;;;;;;5016497;28;20457;-50
2021/08/09 11:26:22;;;;;;;2.83;1.63;;;31.30;72.60;;;;;;5001492;28;20430;-54
2021/08/09 11:28:59;;;;;;;2.10;1.27;;;30.90;70.40;;;;;;4995927;28;20436;-55
2021/08/09 11:31:26;;;;;;;2.00;1.67;;;29.10;75.10;;;;;;4995979;28;20419;-55
2021/08/09 11:33:51;;;;;;;2.73;1.57;;;28.50;80.30;;;;;;4996012;28;20920;-55
2021/08/09 11:36:17;;;;;;;1.90;1.33;;;27.40;79.10;;;;;;4996080;28;20408;-53
2021/08/09 11:38:57;;;;;;;3.57;1.50;;;26.90;85.20;;;;;;4996439;28;20169;-55
2021/08/09 11:41:23;;;;;;;2.50;1.30;;;27.80;83.60;;;;;;4996219;28;20200;-55
2021/08/09 11:44:05;;;;;;;2.63;1.80;;;28.30;78.10;;;;;;4996063;28;20451;-55
2021/08/09 11:46:32;;;;;;;1.87;1.30;;;29.20;74.80;;;;;;4995851;28;20805;-54
2021/08/09 11:48:58;;;;;;;3.17;1.27;;;30.10;73.70;;;;;;5014094;28;20817;-55
2021/08/09 11:51:30;;;;;;;2.73;1.40;;;30.10;71.10;;;;;;5015344;28;20472;-55
2021/08/09 11:53:57;;;;;;;2.00;1.30;;;29.90;73.50;;;;;;5015395;28;20280;-56
2021/08/09 11:56:38;;;;;;;5.23;1.53;;;29.80;72.10;;;;;;5015457;28;20784;-55
2021/08/09 11:59:14;;;;;;;4.17;1.37;;;29.30;75.00;;;;;;5014202;28;20410;-51
2021/08/09 12:01:42;;;;;;;2.30;1.13;;;30.30;72.20;;;;;;5014647;28;20450;-56
2021/08/09 12:04:12;;;;;;;1.70;1.20;;;30.00;69.60;;;;;;5015467;28;20457;-53
2021/08/09 12:06:57;;;;;;;2.10;1.40;;;30.10;70.80;;;;;;5015474;28;20498;-55
2021/08/09 12:09:40;;;;;;;1.60;1.23;;;30.50;71.30;;;;;;5015412;28;20410;-55
2021/08/09 12:12:10;;;;;;;2.27;1.20;;;30.20;68.90;;;;;;5015396;28;20419;-53
2021/08/09 12:14:36;;;;;;;1.60;0.93;;;31.00;69.20;;;;;;5015406;28;20399;-54
2021/08/09 12:17:16;;;;;;;2.03;1.17;;;32.30;66.20;;;;;;5014898;28;20422;-55
2021/08/09 12:19:46;;;;;;;1.40;1.30;;;32.80;59.60;;;;;;5015142;28;20175;-56
2021/08/09 12:22:13;;;;;;;1.90;1.33;;;33.70;62.50;;;;;;5014825;28;20888;-56
2021/08/09 12:24:43;;;;;;;2.00;1.30;;;34.30;59.60;;;;;;5015248;28;20456;-54
2021/08/09 12:27:15;;;;;;;1.63;1.40;;;34.20;59.40;;;;;;5015166;28;20478;-54
2021/08/09 12:30:09;;;;;;;1.53;1.43;;;34.90;57.90;;;;;;5014898;28;20410;-56
2021/08/09 12:32:37;;;;;;;1.40;1.30;;;35.40;53.40;;;;;;5014764;28;20422;-56
2021/08/09 12:35:04;;;;;;;2.00;1.30;;;34.90;52.60;;;;;;4999677;28;20426;-56
2021/08/09 12:37:30;;;;;;;1.43;1.13;;;35.30;52.00;;;;;;4994908;28;20758;-55
2021/08/09 12:40:12;;;;;;;2.53;1.43;;;33.90;53.20;;;;;;4993964;28;20439;-54
2021/08/09 12:42:39;;;;;;;2.43;2.23;;;32.80;56.40;;;;;;4995088;28;20575;-52
2021/08/09 12:45:05;;;;;;;2.53;2.23;;;31.80;58.50;;;;;;4994688;28;20400;-54
2021/08/09 12:47:31;;;;;;;2.73;1.63;;;31.40;57.50;;;;;;5000332;28;20764;-55
2021/08/09 12:49:57;;;;;;;2.17;1.97;;;31.20;58.30;;;;;;5015041;28;20498;-56
2021/08/09 12:52:23;;;;;;;2.63;1.87;;;31.20;59.60;;;;;;5014388;28;20904;-56
2021/08/09 12:54:48;;;;;;;2.63;1.70;;;31.40;58.60;;;;;;5014821;28;20214;-53